Time;durP1;ratioP1;P1;durP2;ratioP2;P2;SDS_P1;SDS_P2;PMS_P1;PMS_P2;Temp;Humidity;BMP_temperature;BMP_pressure;BME280_temperature;BME280_humidity;BME280_pressure;Samples;Min_cycle;Max_cycle;Signal;HPM_P1;HPM_P2
2021/08/13 00:02:22;;;;;;;6.88;3.80;;;19.30;72.60;;;;;;5072939;28;20458;-86
2021/08/13 00:04:49;;;;;;;4.97;2.85;;;19.30;72.60;;;;;;5073008;28;20048;-86
2021/08/13 00:07:16;;;;;;;7.07;3.92;;;19.30;72.60;;;;;;5071211;28;20052;-87
2021/08/13 00:09:43;;;;;;;5.57;3.22;;;19.30;72.60;;;;;;5072955;28;20536;-87
2021/08/13 00:12:10;;;;;;;6.57;3.30;;;19.30;72.70;;;;;;5071363;28;20052;-87
2021/08/13 00:14:37;;;;;;;6.22;3.40;;;19.30;72.70;;;;;;5072844;28;20041;-85
2021/08/13 00:17:04;;;;;;;6.30;3.22;;;19.30;72.70;;;;;;5072556;28;20417;-87
2021/08/13 00:19:31;;;;;;;5.90;3.35;;;19.30;72.80;;;;;;5072680;28;20494;-87
2021/08/13 00:21:58;;;;;;;11.30;3.50;;;19.30;72.80;;;;;;5055380;28;20048;-86
2021/08/13 00:24:25;;;;;;;6.38;3.08;;;19.30;72.80;;;;;;5073010;28;20418;-87
2021/08/13 00:26:51;;;;;;;6.35;3.35;;;19.30;72.80;;;;;;5072493;28;20471;-87
2021/08/13 00:29:18;;;;;;;7.15;3.58;;;19.30;72.80;;;;;;5072368;28;20095;-87
2021/08/13 00:31:45;;;;;;;8.48;3.42;;;19.30;72.70;;;;;;5072275;28;20449;-86
2021/08/13 00:34:12;;;;;;;7.22;3.28;;;19.30;72.70;;;;;;5071328;28;20052;-87
2021/08/13 00:36:39;;;;;;;8.07;3.90;;;19.30;72.70;;;;;;5072238;28;20044;-87
2021/08/13 00:39:06;;;;;;;6.93;3.03;;;19.20;72.60;;;;;;5072868;28;20045;-86
2021/08/13 00:41:33;;;;;;;7.80;3.53;;;19.20;72.50;;;;;;5072270;28;20045;-87
2021/08/13 00:44:00;;;;;;;5.82;3.65;;;19.10;72.40;;;;;;5072257;28;20098;-87
2021/08/13 00:46:27;;;;;;;6.00;3.35;;;19.10;72.40;;;;;;5072264;28;20090;-86
2021/08/13 00:48:54;;;;;;;5.85;3.55;;;19.10;72.30;;;;;;5072056;28;20060;-87
2021/08/13 00:51:21;;;;;;;5.70;3.38;;;19.10;72.20;;;;;;5072395;28;20131;-87
2021/08/13 00:53:48;;;;;;;8.38;3.42;;;19.00;72.20;;;;;;5071944;28;20049;-86
2021/08/13 00:56:16;;;;;;;6.30;3.10;;;19.00;72.10;;;;;;5072091;28;20090;-87
2021/08/13 00:58:43;;;;;;;5.63;3.17;;;18.90;72.10;;;;;;5071925;28;20053;-87
2021/08/13 01:01:11;;;;;;;7.32;3.88;;;18.90;72.00;;;;;;5071997;28;20044;-87
2021/08/13 01:03:39;;;;;;;5.15;3.30;;;18.90;72.00;;;;;;5071860;28;20044;-86
2021/08/13 01:06:09;;;;;;;6.15;3.55;;;18.90;71.90;;;;;;5072193;28;20101;-86
2021/08/13 01:08:36;;;;;;;11.18;4.78;;;18.80;71.90;;;;;;5071747;28;20106;-86
2021/08/13 01:11:35;;;;;;;7.75;3.75;;;18.70;71.90;;;;;;5071633;28;20041;-86
2021/08/13 01:14:14;;;;;;;6.20;3.53;;;18.70;72.10;;;;;;5071857;28;20040;-87
2021/08/13 01:16:46;;;;;;;18.02;4.35;;;18.70;72.10;;;;;;5071621;28;20044;-86
2021/08/13 01:19:26;;;;;;;6.28;3.70;;;18.60;72.00;;;;;;5071128;28;20106;-86
2021/08/13 01:22:19;;;;;;;5.85;3.75;;;18.60;72.00;;;;;;5071974;28;20452;-87
2021/08/13 01:24:47;;;;;;;7.97;3.40;;;18.50;71.90;;;;;;5070249;28;20064;-86
2021/08/13 01:27:38;;;;;;;10.75;3.50;;;18.40;71.90;;;;;;5072193;28;20048;-86
2021/08/13 01:30:10;;;;;;;5.80;3.80;;;18.40;72.10;;;;;;5071466;28;20056;-86
2021/08/13 01:32:52;;;;;;;8.30;3.80;;;18.40;72.30;;;;;;5071215;28;20045;-86
2021/08/13 01:35:25;;;;;;;8.02;4.15;;;18.30;72.30;;;;;;5071479;28;20051;-87
2021/08/13 01:37:55;;;;;;;8.02;4.38;;;18.20;72.30;;;;;;5071499;28;20056;-87
2021/08/13 01:40:23;;;;;;;6.65;4.40;;;18.20;72.50;;;;;;5071646;28;20048;-87
2021/08/13 01:42:52;;;;;;;5.88;3.60;;;18.20;72.60;;;;;;5071569;28;20048;-87
2021/08/13 01:45:24;;;;;;;11.77;4.72;;;18.10;72.80;;;;;;5072183;28;20135;-86
2021/08/13 01:47:53;;;;;;;6.53;3.92;;;18.00;72.90;;;;;;5070870;28;20457;-86
2021/08/13 01:50:21;;;;;;;6.45;4.40;;;18.00;72.90;;;;;;5071333;28;20041;-86
2021/08/13 01:52:54;;;;;;;5.75;3.83;;;18.00;72.80;;;;;;5071362;28;20052;-87
2021/08/13 01:55:21;;;;;;;7.82;3.55;;;17.90;72.70;;;;;;5071519;28;20465;-86
2021/08/13 01:57:48;;;;;;;8.40;3.83;;;17.90;72.60;;;;;;5071398;28;20045;-85
2021/08/13 02:00:19;;;;;;;8.65;4.22;;;17.90;72.60;;;;;;5071887;28;20052;-86
2021/08/13 02:02:47;;;;;;;8.60;3.92;;;17.80;72.50;;;;;;5069905;28;20049;-87
2021/08/13 02:05:25;;;;;;;7.07;4.03;;;17.80;72.60;;;;;;5071233;28;20059;-86
2021/08/13 02:07:54;;;;;;;6.03;4.15;;;17.80;72.60;;;;;;5071059;28;20056;-86
2021/08/13 02:10:22;;;;;;;6.82;4.32;;;17.70;72.60;;;;;;5071242;28;20094;-86
2021/08/13 02:12:48;;;;;;;6.07;3.97;;;17.70;72.80;;;;;;5071311;28;20510;-86
2021/08/13 02:15:16;;;;;;;5.88;4.20;;;17.60;72.80;;;;;;5071942;28;20138;-85
2021/08/13 02:18:10;;;;;;;12.23;4.40;;;17.60;72.70;;;;;;5070735;28;20045;-85
2021/08/13 02:20:39;;;;;;;11.00;4.15;;;17.60;72.70;;;;;;5071052;28;20045;-86
2021/08/13 02:23:10;;;;;;;12.25;4.35;;;17.50;72.70;;;;;;5071031;28;20094;-85
2021/08/13 02:25:37;;;;;;;5.60;3.53;;;17.50;72.70;;;;;;5071156;28;20060;-86
2021/08/13 02:28:04;;;;;;;7.65;3.85;;;17.40;72.70;;;;;;5070951;28;20094;-86
2021/08/13 02:30:31;;;;;;;7.18;4.10;;;17.40;72.70;;;;;;5074801;28;20109;-83
2021/08/13 02:32:58;;;;;;;7.55;3.97;;;17.40;72.80;;;;;;5074840;28;20052;-86
2021/08/13 02:35:25;;;;;;;7.35;4.45;;;17.30;73.10;;;;;;5074620;28;20045;-86
2021/08/13 02:38:01;;;;;;;7.40;4.10;;;17.40;73.30;;;;;;5074571;28;20052;-85
2021/08/13 02:40:34;;;;;;;6.78;3.67;;;17.30;73.50;;;;;;5074597;28;20102;-85
2021/08/13 02:43:09;;;;;;;6.32;4.35;;;17.30;73.70;;;;;;5059068;28;20564;-85
2021/08/13 02:45:39;;;;;;;6.68;4.13;;;17.20;73.80;;;;;;5074492;28;20053;-85
2021/08/13 02:48:07;;;;;;;6.13;3.90;;;17.20;73.80;;;;;;5074787;28;20056;-85
2021/08/13 02:50:38;;;;;;;8.25;4.00;;;17.20;73.70;;;;;;5074359;28;20040;-85
2021/08/13 02:53:08;;;;;;;7.00;4.22;;;17.10;73.90;;;;;;5074408;28;20048;-85
2021/08/13 02:55:46;;;;;;;6.93;4.70;;;17.10;74.00;;;;;;5074377;28;20044;-85
2021/08/13 02:58:19;;;;;;;8.30;4.68;;;17.00;74.10;;;;;;5074399;28;20110;-85
2021/08/13 03:00:48;;;;;;;6.93;4.35;;;17.00;74.30;;;;;;5073946;28;20048;-85
2021/08/13 03:03:17;;;;;;;5.97;4.15;;;16.90;74.40;;;;;;5074856;28;20490;-86
2021/08/13 03:05:50;;;;;;;9.73;4.28;;;16.90;74.60;;;;;;5074073;28;20051;-85
2021/08/13 03:08:21;;;;;;;8.25;4.60;;;16.90;74.70;;;;;;5073932;28;20047;-86
2021/08/13 03:10:50;;;;;;;7.95;4.47;;;16.90;74.80;;;;;;5074094;28;20110;-86
2021/08/13 03:13:18;;;;;;;6.68;4.90;;;16.90;74.80;;;;;;5074102;28;20048;-84
2021/08/13 03:15:46;;;;;;;11.13;5.15;;;16.80;74.90;;;;;;5073791;28;20452;-84
2021/08/13 03:18:14;;;;;;;6.35;4.18;;;16.80;74.90;;;;;;5074419;28;20054;-86
2021/08/13 03:20:41;;;;;;;9.07;5.43;;;16.70;75.00;;;;;;5073907;28;20109;-85
2021/08/13 03:23:09;;;;;;;9.73;4.93;;;16.70;75.10;;;;;;5073560;28;20465;-86
2021/08/13 03:25:36;;;;;;;8.57;5.47;;;16.70;75.20;;;;;;5073987;28;20086;-86
2021/08/13 03:28:07;;;;;;;9.93;5.70;;;16.60;75.30;;;;;;5073862;28;20049;-86
2021/08/13 03:30:42;;;;;;;9.18;5.95;;;16.60;75.50;;;;;;5073578;28;20049;-84
2021/08/13 03:33:11;;;;;;;12.82;6.03;;;16.50;75.60;;;;;;5074137;28;20135;-85
2021/08/13 03:35:38;;;;;;;12.13;6.60;;;16.50;75.70;;;;;;5073559;28;20495;-86
2021/08/13 03:38:06;;;;;;;9.88;6.05;;;16.40;75.80;;;;;;5073550;28;20482;-86
2021/08/13 03:40:33;;;;;;;9.07;6.10;;;16.40;75.90;;;;;;5072991;28;20056;-86
2021/08/13 03:43:01;;;;;;;12.73;6.90;;;16.40;76.10;;;;;;5073782;28;20110;-85
2021/08/13 03:45:28;;;;;;;9.45;6.00;;;16.40;76.20;;;;;;5074152;28;20472;-86
2021/08/13 03:47:55;;;;;;;10.73;5.97;;;16.30;76.20;;;;;;5073295;28;20425;-85
2021/08/13 03:50:22;;;;;;;8.02;5.53;;;16.40;76.30;;;;;;5073206;28;20041;-86
2021/08/13 03:52:49;;;;;;;7.80;5.72;;;16.40;76.40;;;;;;5073210;28;20056;-85
2021/08/13 03:55:16;;;;;;;12.90;6.53;;;16.40;76.40;;;;;;5073245;28;20040;-86
2021/08/13 03:57:44;;;;;;;7.10;5.05;;;16.40;76.40;;;;;;5073100;28;20048;-85
2021/08/13 04:00:12;;;;;;;11.90;6.05;;;16.40;76.30;;;;;;5071578;28;20044;-85
2021/08/13 04:02:38;;;;;;;9.63;5.63;;;16.40;76.10;;;;;;5073091;28;20118;-86
2021/08/13 04:05:06;;;;;;;8.98;5.47;;;16.40;76.00;;;;;;5072833;28;20170;-86
2021/08/13 04:07:33;;;;;;;11.50;5.55;;;16.40;75.90;;;;;;5073006;28;20110;-86
2021/08/13 04:10:00;;;;;;;8.77;5.55;;;16.40;75.80;;;;;;5072988;28;20492;-88
2021/08/13 04:12:27;;;;;;;8.95;5.72;;;16.40;75.70;;;;;;5069085;28;20061;-85
2021/08/13 04:14:54;;;;;;;9.05;6.07;;;16.40;75.60;;;;;;5072922;28;20106;-87
2021/08/13 04:17:21;;;;;;;10.05;6.00;;;16.40;75.60;;;;;;5072654;28;20049;-87
2021/08/13 04:19:48;;;;;;;9.27;6.18;;;16.40;75.60;;;;;;5072739;28;20045;-86
2021/08/13 04:22:17;;;;;;;8.63;5.47;;;16.40;75.60;;;;;;5072852;28;20044;-87
2021/08/13 04:24:44;;;;;;;7.53;5.35;;;16.40;75.50;;;;;;5072481;28;20052;-86
2021/08/13 04:27:10;;;;;;;7.80;5.47;;;16.40;75.70;;;;;;5070759;28;20437;-86
2021/08/13 04:29:37;;;;;;;9.32;6.65;;;16.40;75.70;;;;;;5072236;28;20094;-87
2021/08/13 04:32:05;;;;;;;9.23;6.28;;;16.40;75.90;;;;;;5072473;28;20102;-87
2021/08/13 04:34:32;;;;;;;11.50;6.82;;;16.40;76.10;;;;;;5072470;28;20044;-87
2021/08/13 04:36:58;;;;;;;10.80;6.93;;;16.40;76.20;;;;;;5056573;28;20044;-86
2021/08/13 04:39:25;;;;;;;9.07;6.30;;;16.30;76.30;;;;;;5068620;28;20048;-87
2021/08/13 04:41:52;;;;;;;12.45;6.50;;;16.40;76.40;;;;;;5071824;28;20461;-85
2021/08/13 04:44:19;;;;;;;8.70;6.15;;;16.40;76.40;;;;;;5072294;28;20094;-86
2021/08/13 04:46:46;;;;;;;8.88;6.53;;;16.30;76.50;;;;;;5072186;28;20049;-87
2021/08/13 04:49:15;;;;;;;10.38;6.03;;;16.30;76.50;;;;;;5072116;28;20054;-86
2021/08/13 04:51:42;;;;;;;10.73;6.78;;;16.30;76.60;;;;;;5072000;28;20078;-86
2021/08/13 04:54:10;;;;;;;10.43;7.32;;;16.30;76.70;;;;;;5072180;28;20102;-85
2021/08/13 04:56:39;;;;;;;10.32;6.90;;;16.30;76.80;;;;;;5071742;28;20049;-84
2021/08/13 04:59:06;;;;;;;12.90;7.30;;;16.30;76.90;;;;;;5071868;28;20044;-85
2021/08/13 05:01:33;;;;;;;9.35;7.40;;;16.20;77.00;;;;;;5072060;28;20048;-86
2021/08/13 05:04:01;;;;;;;11.45;7.63;;;16.20;77.20;;;;;;5071871;28;20044;-85
2021/08/13 05:06:28;;;;;;;10.07;7.13;;;16.20;77.30;;;;;;5072586;28;20106;-85
2021/08/13 05:08:55;;;;;;;11.55;7.22;;;16.10;77.40;;;;;;5071837;28;20121;-86
2021/08/13 05:11:22;;;;;;;9.63;7.00;;;16.10;77.50;;;;;;5071563;28;20041;-85
2021/08/13 05:13:49;;;;;;;16.48;7.97;;;16.10;77.60;;;;;;5071800;28;20052;-84
2021/08/13 05:16:16;;;;;;;11.23;8.02;;;16.10;77.60;;;;;;5072041;28;20041;-85
2021/08/13 05:18:43;;;;;;;12.65;8.23;;;16.20;77.70;;;;;;5071727;28;20541;-86
2021/08/13 05:21:10;;;;;;;11.52;6.50;;;16.10;77.70;;;;;;5070207;28;20045;-85
2021/08/13 05:23:37;;;;;;;20.20;8.07;;;16.10;77.80;;;;;;5071599;28;20387;-85
2021/08/13 05:26:04;;;;;;;15.77;8.15;;;16.10;78.00;;;;;;5071463;28;20101;-85
2021/08/13 05:28:35;;;;;;;12.27;8.48;;;16.10;78.10;;;;;;5071527;28;20080;-85
2021/08/13 05:31:02;;;;;;;10.60;7.22;;;16.00;78.30;;;;;;5071818;28;20045;-85
2021/08/13 05:33:29;;;;;;;12.25;7.38;;;16.00;78.40;;;;;;5072333;28;20049;-86
2021/08/13 05:35:56;;;;;;;12.20;7.95;;;16.00;78.60;;;;;;5071627;28;20460;-85
2021/08/13 05:38:23;;;;;;;10.85;7.93;;;16.00;78.70;;;;;;5071514;28;20082;-85
2021/08/13 05:40:50;;;;;;;8.93;6.75;;;16.00;78.80;;;;;;5071091;28;20453;-85
2021/08/13 05:43:17;;;;;;;10.68;6.97;;;16.00;78.90;;;;;;5071553;28;20094;-85
2021/08/13 05:45:44;;;;;;;12.30;8.48;;;16.00;79.10;;;;;;5071761;28;20575;-86
2021/08/13 05:48:11;;;;;;;12.70;7.88;;;16.00;79.20;;;;;;5069968;28;20052;-86
2021/08/13 05:50:38;;;;;;;11.02;8.10;;;16.00;79.30;;;;;;5071454;28;20048;-85
2021/08/13 05:53:06;;;;;;;15.60;9.23;;;16.00;79.60;;;;;;5071363;28;20040;-85
2021/08/13 05:55:32;;;;;;;15.40;9.73;;;16.10;79.90;;;;;;5071180;28;20560;-84
2021/08/13 05:57:59;;;;;;;12.40;8.27;;;16.10;80.30;;;;;;5055611;28;20044;-84
2021/08/13 06:00:27;;;;;;;12.07;9.27;;;16.20;80.50;;;;;;5067780;28;20399;-85
2021/08/13 06:02:57;;;;;;;12.40;9.70;;;16.20;80.80;;;;;;5071325;28;20045;-84
2021/08/13 06:05:25;;;;;;;13.95;8.73;;;16.20;80.90;;;;;;5075025;28;20044;-86
2021/08/13 06:07:52;;;;;;;14.43;8.60;;;16.20;81.00;;;;;;5075269;28;20049;-85
2021/08/13 06:10:20;;;;;;;12.93;8.80;;;16.30;81.10;;;;;;5074831;28;20066;-86
2021/08/13 06:12:47;;;;;;;12.40;9.60;;;16.40;81.20;;;;;;5075281;28;20208;-86
2021/08/13 06:15:15;;;;;;;15.85;9.68;;;16.40;81.20;;;;;;5075801;28;20499;-86
2021/08/13 06:17:44;;;;;;;11.77;9.07;;;16.40;81.30;;;;;;5075067;28;20050;-86
2021/08/13 06:20:17;;;;;;;11.45;8.43;;;16.50;81.40;;;;;;5074988;28;20048;-87
2021/08/13 06:22:47;;;;;;;13.13;8.85;;;16.50;81.60;;;;;;5074277;28;20049;-87
2021/08/13 06:25:14;;;;;;;16.85;8.85;;;16.60;81.70;;;;;;5075014;28;20051;-85
2021/08/13 06:27:46;;;;;;;14.55;8.60;;;16.60;81.90;;;;;;5074130;28;20521;-87
2021/08/13 06:30:18;;;;;;;13.75;8.77;;;16.60;82.20;;;;;;5073600;28;20572;-88
2021/08/13 06:32:44;;;;;;;12.93;8.77;;;16.70;82.10;;;;;;5074770;28;20040;-90
2021/08/13 06:35:12;;;;;;;12.20;8.40;;;16.70;82.10;;;;;;5074624;28;20506;-88
2021/08/13 06:37:45;;;;;;;12.85;8.35;;;16.80;82.10;;;;;;5074521;28;20044;-88
2021/08/13 06:40:13;;;;;;;16.73;8.45;;;16.80;82.10;;;;;;5074818;28;20090;-90
2021/08/13 06:42:41;;;;;;;15.65;8.82;;;16.90;82.10;;;;;;5074749;28;20494;-85
2021/08/13 06:45:11;;;;;;;12.80;8.02;;;16.90;82.10;;;;;;5075037;28;20048;-85
2021/08/13 06:47:38;;;;;;;12.85;8.30;;;16.90;82.10;;;;;;5069525;28;20506;-85
2021/08/13 06:50:06;;;;;;;13.52;7.88;;;16.90;82.10;;;;;;5073515;28;20045;-87
2021/08/13 06:52:33;;;;;;;14.55;8.82;;;16.90;82.00;;;;;;5074092;28;20047;-86
2021/08/13 06:55:00;;;;;;;11.48;7.32;;;17.00;82.00;;;;;;5074406;28;20395;-85
2021/08/13 06:57:27;;;;;;;14.85;8.43;;;17.00;82.00;;;;;;5086319;28;20056;-86
2021/08/13 06:59:54;;;;;;;16.92;7.80;;;17.10;82.00;;;;;;5074251;28;20410;-86
2021/08/13 07:02:20;;;;;;;10.45;6.90;;;17.20;82.00;;;;;;5074714;28;20086;-88
2021/08/13 07:04:47;;;;;;;11.90;6.93;;;17.20;82.00;;;;;;5074669;28;20052;-84
2021/08/13 07:07:14;;;;;;;10.85;5.90;;;17.20;82.00;;;;;;5078775;28;20473;-86
2021/08/13 07:09:46;;;;;;;10.10;5.95;;;17.30;81.80;;;;;;5074967;28;20461;-87
2021/08/13 07:12:14;;;;;;;11.02;6.10;;;17.30;81.70;;;;;;5076900;28;20489;-86
2021/08/13 07:14:42;;;;;;;10.55;5.78;;;17.40;81.60;;;;;;5073586;28;20106;-87
2021/08/13 07:17:10;;;;;;;9.43;4.90;;;17.40;81.50;;;;;;5073933;28;20048;-86
2021/08/13 07:19:37;;;;;;;9.88;5.03;;;17.50;81.40;;;;;;5074226;28;20040;-86
2021/08/13 07:22:04;;;;;;;14.52;5.40;;;17.60;81.30;;;;;;5069846;28;20098;-86
2021/08/13 07:24:31;;;;;;;9.13;4.72;;;17.60;81.30;;;;;;5077099;28;20560;-84
2021/08/13 07:26:58;;;;;;;7.38;4.10;;;17.70;81.20;;;;;;5075197;28;20044;-88
2021/08/13 07:29:25;;;;;;;10.93;4.90;;;17.80;81.00;;;;;;5073477;28;20098;-88
2021/08/13 07:31:55;;;;;;;13.20;4.70;;;17.90;80.90;;;;;;5074157;28;20414;-88
2021/08/13 07:34:22;;;;;;;9.27;4.05;;;17.90;80.70;;;;;;5072710;28;20561;-88
2021/08/13 07:36:49;;;;;;;6.07;3.80;;;18.10;80.60;;;;;;5072107;28;20194;-88
2021/08/13 07:39:35;;;;;;;7.82;3.78;;;18.10;80.40;;;;;;5085603;28;20052;-87
2021/08/13 07:42:02;;;;;;;8.80;3.97;;;18.20;80.10;;;;;;5075190;28;20094;-90
2021/08/13 07:44:29;;;;;;;7.68;3.30;;;18.30;79.90;;;;;;5074253;28;20109;-89
2021/08/13 07:47:11;;;;;;;8.98;3.75;;;18.40;79.60;;;;;;5074437;28;20101;-89
2021/08/13 07:49:38;;;;;;;13.48;3.90;;;18.40;79.50;;;;;;5075376;28;20094;-89
2021/08/13 07:52:05;;;;;;;9.52;4.03;;;18.50;79.30;;;;;;5070283;28;20049;-88
2021/08/13 07:54:32;;;;;;;9.85;3.90;;;18.60;79.00;;;;;;5076651;28;20106;-89
2021/08/13 07:57:00;;;;;;;11.40;4.03;;;18.70;78.50;;;;;;5075258;28;20052;-87
2021/08/13 07:59:26;;;;;;;12.15;3.60;;;18.80;78.30;;;;;;5073639;28;20537;-90
2021/08/13 08:01:53;;;;;;;8.45;3.25;;;18.90;78.20;;;;;;5075326;28;20056;-90
2021/08/13 08:04:20;;;;;;;7.45;3.40;;;18.90;78.10;;;;;;5072136;28;20049;-90
2021/08/13 08:06:47;;;;;;;8.65;3.55;;;19.00;77.90;;;;;;5105696;27;20094;-90
2021/08/13 08:09:14;;;;;;;10.25;3.15;;;19.10;77.60;;;;;;5076488;28;20097;-91
2021/08/13 08:11:41;;;;;;;10.60;3.55;;;19.20;77.40;;;;;;5074269;28;20078;-92
2021/08/13 08:14:08;;;;;;;8.90;3.40;;;19.30;76.90;;;;;;5073730;28;20101;-90
2021/08/13 08:16:38;;;;;;;9.30;4.00;;;19.30;76.30;;;;;;5073683;28;20097;-90
2021/08/13 08:19:05;;;;;;;8.88;3.80;;;19.40;76.30;;;;;;5070944;28;20140;-88
2021/08/13 08:21:32;;;;;;;7.03;3.20;;;19.40;76.30;;;;;;5076162;28;20044;-88
2021/08/13 08:23:59;;;;;;;7.82;3.25;;;19.50;76.00;;;;;;5073582;28;20048;-88
2021/08/13 08:26:26;;;;;;;5.95;3.20;;;19.60;75.80;;;;;;5073341;28;20040;-90
2021/08/13 08:28:53;;;;;;;6.68;3.10;;;19.70;75.70;;;;;;5073327;28;20537;-89
2021/08/13 08:31:20;;;;;;;7.78;3.55;;;19.80;75.10;;;;;;5071663;28;20048;-90
2021/08/13 08:33:47;;;;;;;10.52;3.70;;;19.90;75.10;;;;;;5072318;28;20131;-90
2021/08/13 08:36:14;;;;;;;17.92;3.97;;;20.00;74.60;;;;;;5074733;28;20114;-89
2021/08/13 08:38:41;;;;;;;9.60;3.42;;;20.10;74.40;;;;;;5074697;28;20045;-89
2021/08/13 08:41:08;;;;;;;10.73;3.30;;;20.20;74.00;;;;;;5074705;28;20643;-88
2021/08/13 08:43:35;;;;;;;13.40;4.05;;;20.40;73.80;;;;;;5073436;28;20052;-90
2021/08/13 08:46:03;;;;;;;7.80;3.30;;;20.40;73.40;;;;;;5069225;28;20461;-89
2021/08/13 08:48:37;;;;;;;7.82;3.20;;;20.60;72.80;;;;;;5074373;28;20048;-87
2021/08/13 08:51:06;;;;;;;7.78;3.15;;;20.70;72.90;;;;;;5080832;28;20571;-90
2021/08/13 08:53:34;;;;;;;8.98;3.38;;;20.80;72.80;;;;;;5076204;28;20052;-89
2021/08/13 08:56:01;;;;;;;11.55;3.28;;;20.90;72.80;;;;;;5072589;28;20526;-89
2021/08/13 08:58:32;;;;;;;6.28;3.17;;;21.00;72.70;;;;;;5073721;28;20076;-93
2021/08/13 09:01:00;;;;;;;7.43;3.47;;;21.10;72.40;;;;;;5053134;28;20102;-91
2021/08/13 09:03:28;;;;;;;7.53;3.25;;;21.10;71.70;;;;;;5074888;28;20047;-90
2021/08/13 09:05:55;;;;;;;8.63;3.20;;;21.20;71.40;;;;;;5072404;28;20049;-95
2021/08/13 09:08:22;;;;;;;13.77;3.17;;;21.30;71.10;;;;;;5079373;28;20048;-92
2021/08/13 09:10:49;;;;;;;7.65;3.10;;;21.30;70.60;;;;;;5082068;28;20052;-92
2021/08/13 09:13:22;;;;;;;7.28;2.83;;;21.40;70.40;;;;;;5074259;28;20025;-94
2021/08/13 09:15:52;;;;;;;8.23;3.03;;;21.40;70.40;;;;;;5074694;28;20054;-93
2021/08/13 09:18:24;;;;;;;7.00;3.20;;;21.40;70.10;;;;;;5089359;28;20289;-90
2021/08/13 09:20:55;;;;;;;7.90;3.40;;;21.40;69.90;;;;;;5085249;28;20048;-93
2021/08/13 09:23:36;;;;;;;9.07;3.65;;;21.50;70.00;;;;;;5076980;28;20102;-91
2021/08/13 09:26:07;;;;;;;9.95;3.15;;;21.60;70.10;;;;;;5073027;28;20566;-88
2021/08/13 09:28:54;;;;;;;10.13;3.60;;;21.60;69.70;;;;;;5074490;28;20047;-93
2021/08/13 09:31:26;;;;;;;6.60;2.72;;;21.70;69.80;;;;;;5070682;28;20056;-92
2021/08/13 09:34:08;;;;;;;9.50;3.70;;;21.80;69.70;;;;;;5068151;28;20526;-90
2021/08/13 09:36:37;;;;;;;14.70;3.63;;;21.90;69.70;;;;;;5084489;28;20048;-93
2021/08/13 09:39:10;;;;;;;7.97;3.00;;;22.00;69.30;;;;;;5075890;28;20507;-90
2021/08/13 09:41:50;;;;;;;8.35;3.28;;;22.20;68.80;;;;;;5075930;28;20056;-91
2021/08/13 09:44:43;;;;;;;6.57;3.15;;;22.30;68.90;;;;;;5077783;28;20044;-91
2021/08/13 09:47:14;;;;;;;9.25;3.45;;;22.40;68.70;;;;;;5078767;28;20094;-91
2021/08/13 09:49:54;;;;;;;14.20;3.88;;;22.40;68.40;;;;;;5072625;28;20048;-91
2021/08/13 09:52:21;;;;;;;6.82;3.05;;;22.60;68.30;;;;;;5071132;28;20052;-90
2021/08/13 09:55:05;;;;;;;6.38;2.90;;;22.70;67.90;;;;;;5072648;28;20603;-91
2021/08/13 09:57:39;;;;;;;;;;;22.90;68.10;;;;;;5086657;28;20460;-91
2021/08/13 10:00:09;;;;;;;6.97;3.05;;;23.00;67.60;;;;;;5076651;28;20445;-94
2021/08/13 10:02:38;;;;;;;9.93;3.60;;;23.10;66.70;;;;;;5072583;28;20094;-91
2021/08/13 10:05:25;;;;;;;6.00;3.20;;;23.10;66.60;;;;;;5074188;28;20049;-93
2021/08/13 10:07:58;;;;;;;7.63;2.80;;;23.20;66.40;;;;;;5075356;28;20048;-93
2021/08/13 10:10:41;;;;;;;8.70;3.15;;;23.30;66.40;;;;;;5071414;28;20459;-89
2021/08/13 10:13:10;;;;;;;14.60;3.45;;;23.40;66.60;;;;;;5054935;28;20045;-94
2021/08/13 10:15:45;;;;;;;8.90;3.50;;;23.60;66.60;;;;;;5074189;28;20053;-92
2021/08/13 10:18:14;;;;;;;8.93;2.92;;;23.80;66.60;;;;;;5076231;28;20531;-93
2021/08/13 10:20:44;;;;;;;6.30;2.55;;;23.90;65.50;;;;;;5073371;28;20560;-91
2021/08/13 10:23:11;;;;;;;6.88;2.80;;;24.00;65.00;;;;;;5074552;28;20071;-92
2021/08/13 10:25:39;;;;;;;9.75;3.13;;;24.20;64.30;;;;;;5074972;28;20118;-93
2021/08/13 10:28:06;;;;;;;11.90;3.00;;;24.30;63.70;;;;;;5070815;28;20056;-93
2021/08/13 10:30:33;;;;;;;7.40;3.03;;;24.40;63.40;;;;;;5077047;28;20094;-93
2021/08/13 10:33:07;;;;;;;6.47;2.65;;;24.40;62.70;;;;;;5074936;28;20524;-93
2021/08/13 10:35:54;;;;;;;9.45;2.95;;;24.40;62.50;;;;;;5074922;28;20048;-91
2021/08/13 10:38:21;;;;;;;10.77;2.80;;;24.50;62.80;;;;;;5072290;28;20094;-94
2021/08/13 10:40:49;;;;;;;8.55;2.92;;;24.60;63.00;;;;;;5073201;28;20453;-92
2021/08/13 10:43:19;;;;;;;9.55;2.80;;;24.70;62.20;;;;;;5071728;28;20098;-93
2021/08/13 10:45:51;;;;;;;6.28;2.53;;;24.70;62.50;;;;;;5071862;28;20048;-91
2021/08/13 10:48:24;;;;;;;10.82;3.22;;;24.80;62.70;;;;;;5077608;28;20048;-93
2021/08/13 10:50:58;;;;;;;;;;;24.80;62.70;;;;;;5078744;28;20044;-94
2021/08/13 10:53:29;;;;;;;8.60;3.35;;;24.90;62.60;;;;;;5080751;28;19970;-94
2021/08/13 10:55:58;;;;;;;10.82;3.13;;;24.90;62.10;;;;;;5078065;28;20498;-92
2021/08/13 10:58:40;;;;;;;10.57;3.00;;;24.90;62.00;;;;;;5078493;28;20066;-93
2021/08/13 11:01:09;;;;;;;12.95;3.50;;;24.90;61.40;;;;;;5057636;28;20040;-92
2021/08/13 11:03:38;;;;;;;13.18;3.80;;;25.00;61.80;;;;;;5079686;28;20045;-92
2021/08/13 11:06:06;;;;;;;10.02;3.35;;;25.00;62.20;;;;;;5081136;28;20056;-91
2021/08/13 11:08:42;;;;;;;9.52;3.00;;;25.10;61.20;;;;;;5076747;28;20097;-96
2021/08/13 11:11:10;;;;;;;9.65;3.53;;;25.10;61.30;;;;;;5079253;28;20052;-92
2021/08/13 11:13:38;;;;;;;11.35;3.42;;;25.10;61.80;;;;;;5076071;28;20044;-95
2021/08/13 11:16:32;;;;;;;12.07;3.17;;;25.10;61.80;;;;;;5072456;28;20052;-92
2021/08/13 11:19:02;;;;;;;8.75;3.08;;;25.10;61.40;;;;;;5055707;28;20044;-91
2021/08/13 11:21:48;;;;;;;10.75;3.38;;;25.20;61.30;;;;;;5087165;28;20044;-92
2021/08/13 11:24:18;;;;;;;11.30;3.55;;;25.20;61.40;;;;;;5077939;28;20118;-95
2021/08/13 11:26:47;;;;;;;11.63;3.38;;;25.20;61.70;;;;;;5076197;28;20110;-93
2021/08/13 11:29:37;;;;;;;8.77;2.90;;;25.20;61.70;;;;;;5076870;28;20032;-95
2021/08/13 11:32:14;;;;;;;9.88;3.17;;;25.30;61.70;;;;;;5081834;28;20052;-94
2021/08/13 11:34:46;;;;;;;10.88;3.72;;;25.30;61.80;;;;;;5075211;28;20105;-94
2021/08/13 11:37:30;;;;;;;15.75;3.47;;;25.40;61.70;;;;;;5071992;28;20041;-93
2021/08/13 11:40:14;;;;;;;12.73;3.67;;;25.40;61.90;;;;;;5088365;28;20578;-94
2021/08/13 11:42:48;;;;;;;13.10;3.60;;;25.40;61.20;;;;;;5088844;28;20059;-93
2021/08/13 11:45:16;;;;;;;10.70;4.35;;;25.50;61.50;;;;;;5078374;28;20098;-94
2021/08/13 11:47:46;;;;;;;13.00;4.60;;;25.50;61.10;;;;;;5077881;28;20064;-95
2021/08/13 11:50:14;;;;;;;11.65;3.50;;;25.60;61.00;;;;;;5076235;28;20098;-93
2021/08/13 11:52:49;;;;;;;12.35;3.70;;;25.70;60.80;;;;;;5067961;28;20102;-94
2021/08/13 11:55:22;;;;;;;10.65;3.13;;;25.70;60.50;;;;;;5085963;28;20048;-91
2021/08/13 11:57:50;;;;;;;;;;;25.80;60.50;;;;;;5072894;28;20048;-91
2021/08/13 12:00:25;;;;;;;15.68;3.97;;;25.90;60.40;;;;;;5086285;28;20038;-93
2021/08/13 12:03:10;;;;;;;12.40;3.80;;;25.90;60.20;;;;;;5078892;28;20054;-93
2021/08/13 12:05:40;;;;;;;13.65;3.65;;;26.10;59.90;;;;;;5081857;28;20049;-94
2021/08/13 12:08:09;;;;;;;11.90;3.67;;;26.10;60.00;;;;;;5080865;28;20105;-90
2021/08/13 12:10:36;;;;;;;9.60;3.17;;;26.20;59.30;;;;;;5090509;28;20055;-96
2021/08/13 12:13:10;;;;;;;17.50;3.55;;;26.20;59.10;;;;;;5072944;28;20418;-95
2021/08/13 12:15:39;;;;;;;11.50;3.75;;;26.20;58.70;;;;;;5077697;28;20049;-92
2021/08/13 12:18:07;;;;;;;11.52;3.83;;;26.30;58.70;;;;;;5078744;28;20087;-94
2021/08/13 12:20:36;;;;;;;13.73;3.38;;;26.20;58.40;;;;;;5076373;28;20049;-94
2021/08/13 12:23:06;;;;;;;12.63;3.65;;;26.20;58.90;;;;;;5076781;28;20040;-94
2021/08/13 12:25:41;;;;;;;7.50;3.08;;;26.20;59.10;;;;;;5077413;28;20114;-93
2021/08/13 12:28:11;;;;;;;10.82;3.38;;;26.30;59.10;;;;;;5058514;28;20449;-95
2021/08/13 12:30:38;;;;;;;11.10;3.95;;;26.20;58.80;;;;;;5076160;28;20407;-92
2021/08/13 12:33:16;;;;;;;9.55;2.83;;;26.20;58.80;;;;;;5075832;28;20570;-89
2021/08/13 12:35:45;;;;;;;14.18;3.40;;;26.10;58.60;;;;;;5073047;28;20060;-88
2021/08/13 12:38:12;;;;;;;10.82;3.50;;;26.20;59.20;;;;;;5072738;28;20045;-89
2021/08/13 12:40:53;;;;;;;10.35;3.67;;;26.20;59.40;;;;;;5074338;28;20622;-87
2021/08/13 12:43:21;;;;;;;8.23;2.88;;;26.20;59.40;;;;;;5071200;28;20102;-88
2021/08/13 12:45:51;;;;;;;12.02;3.58;;;26.30;59.10;;;;;;5071645;28;20102;-88
2021/08/13 12:48:20;;;;;;;12.48;3.22;;;26.30;58.90;;;;;;5075887;28;20049;-88
2021/08/13 12:51:00;;;;;;;10.93;3.20;;;26.30;58.20;;;;;;5074601;28;20055;-89
2021/08/13 12:53:45;;;;;;;14.00;3.50;;;26.40;58.30;;;;;;5072523;28;20052;-88
2021/08/13 12:56:20;;;;;;;10.80;3.42;;;26.40;58.80;;;;;;5075051;28;20048;-89
2021/08/13 12:58:47;;;;;;;9.80;3.38;;;26.50;56.90;;;;;;5073820;28;20055;-88